createdAt,value
2022-08-08T00:00:51.068Z,725.33
2022-08-08T00:02:43.065Z,731.70
2022-08-08T00:04:55.807Z,728.30
2022-08-08T00:07:22.429Z,735.63
2022-08-08T00:09:52.474Z,734.63
2022-08-08T00:12:23.836Z,733.70
2022-08-08T00:14:59.192Z,735.77
2022-08-08T00:17:26.887Z,727.73
2022-08-08T00:20:01.906Z,729.07
2022-08-08T00:22:28.981Z,732.80
2022-08-08T00:24:56.855Z,737.63
2022-08-08T00:27:25.953Z,731.97
2022-08-08T00:30:01.384Z,746.77
2022-08-08T00:32:35.233Z,744.33
2022-08-08T00:35:04.147Z,732.57
2022-08-08T00:37:47.315Z,736.10
2022-08-08T00:41:10.699Z,729.90
2022-08-08T00:43:06.033Z,737.10
2022-08-08T00:45:45.032Z,735.10
2022-08-08T00:48:30.351Z,734.10
2022-08-08T00:51:00.417Z,735.03
2022-08-08T00:53:29.451Z,736.83
2022-08-08T00:55:56.018Z,728.67
2022-08-08T00:58:30.419Z,730.83
2022-08-08T01:00:58.139Z,733.50
2022-08-08T01:04:02.283Z,728.10
2022-08-08T01:06:11.970Z,729.37
2022-08-08T01:08:38.446Z,730.40
2022-08-08T01:11:13.189Z,734.80
2022-08-08T01:13:44.253Z,725.43
2022-08-08T01:16:19.169Z,728.73
2022-08-08T01:18:53.566Z,726.73
2022-08-08T01:22:07.171Z,722.37
2022-08-08T01:24:16.344Z,724.03
2022-08-08T01:26:48.175Z,724.10
2022-08-08T01:29:15.847Z,724.20
2022-08-08T01:32:14.784Z,728.07
2022-08-08T01:34:29.011Z,725.73
2022-08-08T01:36:55.601Z,725.53
2022-08-08T01:39:23.410Z,734.33
2022-08-08T01:41:50.776Z,727.27
2022-08-08T01:44:19.054Z,732.73
2022-08-08T01:46:47.629Z,726.27
2022-08-08T01:49:23.460Z,726.03
2022-08-08T01:52:28.584Z,723.57
2022-08-08T01:55:27.165Z,726.67
2022-08-08T01:58:11.310Z,724.67
2022-08-08T02:00:23.670Z,724.60
2022-08-08T02:02:50.196Z,722.20
2022-08-08T02:05:17.362Z,728.93
2022-08-08T02:07:49.014Z,730.07
2022-08-08T02:10:30.279Z,726.27
2022-08-08T02:13:02.526Z,733.00
2022-08-08T02:15:28.969Z,725.43
2022-08-08T02:17:55.414Z,725.43
2022-08-08T02:21:01.425Z,728.50
2022-08-08T02:23:08.403Z,735.63
2022-08-08T02:25:48.651Z,733.60
2022-08-08T02:28:15.915Z,731.70
2022-08-08T02:30:49.724Z,730.70
2022-08-08T02:33:16.766Z,725.53
2022-08-08T02:36:04.255Z,732.77
2022-08-08T02:38:31.849Z,725.37
2022-08-08T02:40:58.456Z,730.00
2022-08-08T02:44:38.393Z,733.20
2022-08-08T02:46:11.328Z,734.47
2022-08-08T02:48:38.336Z,730.07
2022-08-08T02:51:11.742Z,739.97
2022-08-08T02:53:38.583Z,736.90
2022-08-08T02:56:05.020Z,739.93
2022-08-08T02:58:35.285Z,734.27
2022-08-08T03:01:03.364Z,749.77
2022-08-08T03:05:01.090Z,748.40
2022-08-08T03:06:24.183Z,743.77
2022-08-08T03:09:01.625Z,729.23
2022-08-08T03:11:37.731Z,734.73
2022-08-08T03:15:56.484Z,725.23
2022-08-08T03:17:01.074Z,710.20
2022-08-08T03:19:27.989Z,705.30
2022-08-08T03:21:59.663Z,700.07
2022-08-08T03:24:26.538Z,634.87
2022-08-08T03:26:55.202Z,584.80
2022-08-08T03:29:38.250Z,617.23
2022-08-08T03:32:08.832Z,660.63
2022-08-08T03:34:35.385Z,668.23
2022-08-08T03:37:10.802Z,684.90
2022-08-08T03:40:00.552Z,687.90
2022-08-08T03:42:38.697Z,671.03
2022-08-08T03:46:02.950Z,683.47
2022-08-08T03:47:57.380Z,686.60
2022-08-08T03:50:25.300Z,705.53
2022-08-08T03:52:52.670Z,687.83
2022-08-08T03:55:56.042Z,702.23
2022-08-08T03:58:31.854Z,691.50
2022-08-08T04:01:20.499Z,691.93
2022-08-08T04:04:00.162Z,693.63
2022-08-08T04:06:29.971Z,698.63
2022-08-08T04:08:56.883Z,684.23
2022-08-08T04:11:23.746Z,681.90
2022-08-08T04:14:04.318Z,681.83
2022-08-08T04:16:41.038Z,658.87
2022-08-08T04:19:23.935Z,675.50
2022-08-08T04:21:51.955Z,668.77
2022-08-08T04:24:28.856Z,673.20
2022-08-08T04:26:58.726Z,665.87
2022-08-08T04:29:25.506Z,678.43
2022-08-08T04:31:58.794Z,677.17
2022-08-08T04:34:32.036Z,675.47
2022-08-08T04:37:09.214Z,674.90
2022-08-08T04:40:05.711Z,673.90
2022-08-08T04:42:22.215Z,660.93
2022-08-08T04:44:50.067Z,667.27
2022-08-08T04:47:16.725Z,673.30
2022-08-08T04:50:01.084Z,676.07
2022-08-08T04:52:33.786Z,669.93
2022-08-08T04:55:01.532Z,673.40
2022-08-08T04:57:28.144Z,676.10
2022-08-08T04:59:55.260Z,668.07
2022-08-08T05:02:28.819Z,677.13
2022-08-08T05:04:59.332Z,662.70
2022-08-08T05:07:26.345Z,672.23
2022-08-08T05:09:52.822Z,663.03
2022-08-08T05:12:21.385Z,676.37
2022-08-08T05:14:55.570Z,673.63
2022-08-08T05:17:23.244Z,662.23
2022-08-08T05:20:10.666Z,669.40
2022-08-08T05:22:36.403Z,671.20
2022-08-08T05:25:02.967Z,662.47
2022-08-08T05:30:09.792Z,657.80
2022-08-08T05:32:37.518Z,658.63
2022-08-08T05:35:05.019Z,648.77
2022-08-08T05:37:49.197Z,659.33
2022-08-08T05:40:18.419Z,660.07
2022-08-08T05:42:51.235Z,653.40
2022-08-08T05:45:25.684Z,657.20
2022-08-08T05:48:08.562Z,658.53
2022-08-08T05:50:35.633Z,663.23
2022-08-08T05:53:54.667Z,664.93
2022-08-08T05:56:09.582Z,654.97
2022-08-08T05:58:35.904Z,650.70
2022-08-08T06:01:02.976Z,653.37
2022-08-08T06:03:31.546Z,649.83
2022-08-08T06:06:01.169Z,660.00
2022-08-08T06:08:33.618Z,658.23
2022-08-08T06:11:01.742Z,649.73
2022-08-08T06:13:35.492Z,650.03
2022-08-08T06:16:03.110Z,660.10
2022-08-08T06:18:29.818Z,667.60
2022-08-08T06:20:57.127Z,659.53
2022-08-08T06:23:48.669Z,658.47
2022-08-08T06:26:38.490Z,654.13
2022-08-08T06:29:02.458Z,664.87
2022-08-08T06:31:32.252Z,669.53
2022-08-08T06:34:25.545Z,662.40
2022-08-08T06:36:54.233Z,665.27
2022-08-08T06:39:21.761Z,664.03
2022-08-08T06:41:49.104Z,659.43
2022-08-08T06:44:22.849Z,669.13
2022-08-08T06:46:51.791Z,654.27
2022-08-08T06:49:18.265Z,660.43
2022-08-08T06:52:04.704Z,659.77
2022-08-08T06:54:31.434Z,653.00
2022-08-08T06:56:57.859Z,660.20
2022-08-08T06:59:25.595Z,651.67
2022-08-08T07:02:27.404Z,651.67
2022-08-08T07:04:45.499Z,668.07
2022-08-08T07:07:16.132Z,655.13
2022-08-08T07:09:56.441Z,659.03
2022-08-08T07:12:30.504Z,659.53
2022-08-08T07:14:57.866Z,664.63
2022-08-08T07:17:24.447Z,664.00
2022-08-08T07:20:06.656Z,664.37
2022-08-08T07:22:33.090Z,675.30
2022-08-08T07:24:59.555Z,667.97
2022-08-08T07:27:35.382Z,671.13
2022-08-08T07:30:16.652Z,666.40
2022-08-08T07:32:47.888Z,672.87
2022-08-08T07:35:15.001Z,671.13
2022-08-08T07:37:56.592Z,678.87
2022-08-08T07:40:30.146Z,669.70
2022-08-08T07:42:59.382Z,659.67
2022-08-08T07:45:26.387Z,660.47
2022-08-08T07:47:53.345Z,667.37
2022-08-08T07:50:23.434Z,664.20
2022-08-08T07:52:50.121Z,665.27
2022-08-08T07:55:16.585Z,713.43
2022-08-08T07:57:44.991Z,692.80
2022-08-08T08:00:16.661Z,701.97
2022-08-08T08:02:43.569Z,660.93
2022-08-08T08:05:15.007Z,656.70
2022-08-08T08:07:42.248Z,659.33
2022-08-08T08:10:12.958Z,664.33
2022-08-08T08:12:43.388Z,661.60
2022-08-08T08:15:10.192Z,667.87
2022-08-08T08:17:48.987Z,669.50
2022-08-08T08:20:22.030Z,661.23
2022-08-08T08:22:56.961Z,665.47
2022-08-08T08:25:43.556Z,667.83
2022-08-08T08:28:09.854Z,670.63
2022-08-08T08:30:36.319Z,680.20
2022-08-08T08:33:03.418Z,671.97
2022-08-08T08:38:21.553Z,672.87
2022-08-08T08:40:51.403Z,675.10
2022-08-08T08:43:18.724Z,685.10
2022-08-08T08:45:45.474Z,679.43
2022-08-08T08:48:18.998Z,686.27
2022-08-08T08:50:45.895Z,684.60
2022-08-08T08:53:54.837Z,685.00
2022-08-08T08:56:02.647Z,681.97
2022-08-08T08:58:29.395Z,690.80
2022-08-08T09:01:08.390Z,691.27
2022-08-08T09:03:46.547Z,684.93
2022-08-08T09:06:26.149Z,691.30
2022-08-08T09:08:53.670Z,683.63
2022-08-08T09:11:20.785Z,690.47
2022-08-08T09:13:47.944Z,699.67
2022-08-08T09:16:20.152Z,693.47
2022-08-08T09:18:55.247Z,707.33
2022-08-08T09:21:58.547Z,707.70
2022-08-08T09:24:08.147Z,695.03
2022-08-08T09:26:40.052Z,695.80
2022-08-08T09:29:13.776Z,705.80
2022-08-08T09:31:56.928Z,698.20
2022-08-08T09:34:34.326Z,700.60
2022-08-08T09:37:57.319Z,709.47
2022-08-08T09:42:44.013Z,705.67
2022-08-08T09:45:20.720Z,710.13
2022-08-08T09:48:10.269Z,705.20
2022-08-08T09:50:43.887Z,698.13
2022-08-08T09:53:24.873Z,711.93
2022-08-08T09:56:06.742Z,705.13
2022-08-08T09:58:41.348Z,710.30
2022-08-08T10:03:58.287Z,722.77
2022-08-08T10:06:29.622Z,724.13
2022-08-08T10:08:56.603Z,726.10
2022-08-08T10:12:27.445Z,717.73
2022-08-08T10:14:10.837Z,728.80
2022-08-08T10:16:54.495Z,722.17
2022-08-08T10:19:20.990Z,730.63
2022-08-08T10:21:50.304Z,721.63
2022-08-08T10:24:28.723Z,737.93
2022-08-08T10:26:59.110Z,739.50
2022-08-08T10:29:30.245Z,729.20
2022-08-08T10:32:04.505Z,736.80
2022-08-08T10:34:30.991Z,736.43
2022-08-08T10:36:59.926Z,738.87
2022-08-08T10:39:31.846Z,731.37
2022-08-08T10:42:16.265Z,737.10
2022-08-08T10:44:43.447Z,736.00
2022-08-08T10:47:12.211Z,736.00
2022-08-08T10:50:00.365Z,729.13
2022-08-08T10:52:30.969Z,721.40
2022-08-08T10:57:50.181Z,722.53
2022-08-08T11:00:17.439Z,722.60
2022-08-08T11:02:48.509Z,718.70
2022-08-08T11:05:17.803Z,721.10
2022-08-08T11:08:38.172Z,734.00
2022-08-08T11:10:30.955Z,730.40
2022-08-08T11:13:18.725Z,713.77
2022-08-08T11:15:52.367Z,722.50
2022-08-08T11:18:26.725Z,725.43
2022-08-08T11:20:57.429Z,721.67
2022-08-08T11:23:24.209Z,733.13
2022-08-08T11:25:58.575Z,727.87
2022-08-08T11:28:25.810Z,741.23
2022-08-08T11:30:55.861Z,738.13
2022-08-08T11:33:22.613Z,738.83
2022-08-08T11:36:09.041Z,731.13
2022-08-08T11:38:53.772Z,725.57
2022-08-08T11:41:21.504Z,735.60
2022-08-08T11:43:49.061Z,730.30
2022-08-08T11:46:17.836Z,738.37
2022-08-08T11:48:47.593Z,736.83
2022-08-08T11:51:30.814Z,729.50
2022-08-08T11:54:02.439Z,729.47
2022-08-08T11:56:33.037Z,732.63
2022-08-08T11:59:01.187Z,723.93
2022-08-08T12:01:28.937Z,715.20
2022-08-08T12:03:59.409Z,720.07
2022-08-08T12:06:26.228Z,704.03
2022-08-08T12:08:54.211Z,721.73
2022-08-08T12:11:27.206Z,718.07
2022-08-08T12:14:03.427Z,724.57
2022-08-08T12:16:44.663Z,727.87
2022-08-08T12:19:13.532Z,722.47
2022-08-08T12:22:00.638Z,721.00
2022-08-08T12:24:27.935Z,723.13
2022-08-08T12:26:56.946Z,728.30
2022-08-08T12:29:25.991Z,719.27
2022-08-08T12:32:09.393Z,737.10
2022-08-08T12:34:36.691Z,725.07
2022-08-08T12:37:03.300Z,723.40
2022-08-08T12:40:00.287Z,733.87
2022-08-08T12:42:21.028Z,732.37
2022-08-08T12:44:48.232Z,742.93
2022-08-08T12:47:16.823Z,730.20
2022-08-08T12:49:45.193Z,730.10
2022-08-08T12:52:28.411Z,733.77
2022-08-08T12:54:55.683Z,726.70
2022-08-08T12:57:23.426Z,725.70
2022-08-08T13:00:03.743Z,735.10
2022-08-08T13:02:33.094Z,733.83
2022-08-08T13:10:55.665Z,720.03
2022-08-08T13:13:23.860Z,724.07
2022-08-08T13:15:54.772Z,717.17
2022-08-08T13:18:27.235Z,717.07
2022-08-08T13:20:54.206Z,722.50
2022-08-08T13:23:30.623Z,721.87
2022-08-08T13:25:59.432Z,718.03
2022-08-08T13:28:32.432Z,714.83
2022-08-08T13:30:59.245Z,717.87
2022-08-08T13:33:42.740Z,715.50
2022-08-08T13:36:09.882Z,726.13
2022-08-08T13:38:36.316Z,708.57
2022-08-08T13:41:03.509Z,705.93
2022-08-08T13:43:29.942Z,721.83
2022-08-08T13:45:56.822Z,710.87
2022-08-08T13:48:26.621Z,714.10
2022-08-08T13:50:57.502Z,709.60
2022-08-08T13:53:26.097Z,696.60
2022-08-08T13:55:52.723Z,698.13
2022-08-08T13:58:20.954Z,708.30
2022-08-08T14:00:47.877Z,704.27
2022-08-08T14:03:52.162Z,711.93
2022-08-08T14:06:01.693Z,699.17
2022-08-08T14:08:30.271Z,705.37
2022-08-08T14:11:01.192Z,714.00
2022-08-08T14:13:33.654Z,705.30
2022-08-08T14:16:00.747Z,707.00
2022-08-08T14:18:35.198Z,712.17
2022-08-08T14:21:15.003Z,703.17
2022-08-08T14:24:04.533Z,713.17
2022-08-08T14:26:33.613Z,709.10
2022-08-08T14:29:00.103Z,700.33
2022-08-08T14:32:05.567Z,711.70
2022-08-08T14:34:22.906Z,696.40
2022-08-08T14:36:51.713Z,708.87
2022-08-08T14:39:20.985Z,708.93
2022-08-08T14:41:54.449Z,707.33
2022-08-08T14:44:24.922Z,706.63
2022-08-08T14:46:56.827Z,705.30
2022-08-08T14:49:32.220Z,700.73
2022-08-08T14:52:00.133Z,713.23
2022-08-08T14:54:29.801Z,715.00
2022-08-08T14:56:57.039Z,708.60
2022-08-08T14:59:44.444Z,716.20
2022-08-08T15:02:10.841Z,707.47
2022-08-08T15:04:42.210Z,706.20
2022-08-08T15:07:22.726Z,705.27
2022-08-08T15:09:51.433Z,708.30
2022-08-08T15:12:27.305Z,710.30
2022-08-08T15:14:54.231Z,711.93
2022-08-08T15:17:20.697Z,716.10
2022-08-08T15:19:47.273Z,713.90
2022-08-08T15:22:13.782Z,709.23
2022-08-08T15:24:44.612Z,708.57
2022-08-08T15:28:05.041Z,707.70
2022-08-08T15:30:03.027Z,690.73
2022-08-08T15:32:31.652Z,703.10
2022-08-08T15:34:58.265Z,696.87
2022-08-08T15:37:26.567Z,699.63
2022-08-08T15:39:53.984Z,703.60
2022-08-08T15:42:32.444Z,697.60
2022-08-08T15:44:59.633Z,696.10
2022-08-08T15:47:26.129Z,690.37
2022-08-08T15:49:52.598Z,696.40
2022-08-08T15:52:20.825Z,696.10
2022-08-08T15:54:54.381Z,689.57
2022-08-08T15:57:21.526Z,681.47
2022-08-08T16:00:06.702Z,695.90
2022-08-08T16:02:35.701Z,691.73
2022-08-08T16:05:03.895Z,688.97
2022-08-08T16:07:50.988Z,675.27
2022-08-08T16:13:05.264Z,688.80
2022-08-08T16:13:30.126Z,681.50
2022-08-08T16:15:59.414Z,692.70
2022-08-08T16:18:29.783Z,691.50
2022-08-08T16:21:00.716Z,697.60
2022-08-08T16:23:27.414Z,686.63
2022-08-08T16:25:57.228Z,690.27
2022-08-08T16:28:35.191Z,691.50
2022-08-08T16:31:03.236Z,693.50
2022-08-08T16:33:38.904Z,701.10
2022-08-08T16:36:08.510Z,698.80
2022-08-08T16:38:35.809Z,694.93
2022-08-08T16:41:07.256Z,683.90
2022-08-08T16:43:49.224Z,690.10
2022-08-08T16:46:43.114Z,695.17
2022-08-08T16:49:04.290Z,684.07
2022-08-08T16:55:00.526Z,690.03
2022-08-08T16:55:00.889Z,698.93
2022-08-08T16:57:23.236Z,690.30
2022-08-08T16:59:52.715Z,694.80
2022-08-08T17:02:38.814Z,696.53
2022-08-08T17:05:06.507Z,688.83
2022-08-08T17:07:32.958Z,686.23
2022-08-08T17:10:04.046Z,672.77
2022-08-08T17:12:31.336Z,680.83
2022-08-08T17:14:59.377Z,682.97
2022-08-08T17:18:01.695Z,680.30
2022-08-08T17:20:12.781Z,677.70
2022-08-08T17:22:42.508Z,681.23
2022-08-08T17:25:09.212Z,675.97
2022-08-08T17:27:46.086Z,673.00
2022-08-08T17:30:27.368Z,685.50
2022-08-08T17:34:37.466Z,668.67
2022-08-08T17:35:54.811Z,681.63
2022-08-08T17:38:31.141Z,681.63
2022-08-08T17:40:59.363Z,671.03
2022-08-08T17:43:25.904Z,653.00
2022-08-08T17:45:52.347Z,671.23
2022-08-08T17:48:29.329Z,690.10
2022-08-08T17:50:57.485Z,677.23
2022-08-08T17:53:31.274Z,685.00
2022-08-08T17:56:10.223Z,680.60
2022-08-08T18:04:04.555Z,689.90
2022-08-08T18:06:35.592Z,687.47
2022-08-08T18:09:09.628Z,686.77
2022-08-08T18:11:38.327Z,690.20
2022-08-08T18:14:21.809Z,694.77
2022-08-08T18:16:52.573Z,676.37
2022-08-08T18:19:20.701Z,690.33
2022-08-08T18:22:01.260Z,694.00
2022-08-08T18:24:28.521Z,690.50
2022-08-08T18:26:57.033Z,690.83
2022-08-08T18:29:30.156Z,684.53
2022-08-08T18:32:00.090Z,691.23
2022-08-08T18:34:30.307Z,695.70
2022-08-08T18:36:59.550Z,686.40
2022-08-08T18:39:28.330Z,697.43
2022-08-08T18:42:02.912Z,692.50
2022-08-08T18:44:30.383Z,699.40
2022-08-08T18:47:01.304Z,702.40
2022-08-08T18:49:32.682Z,702.27
2022-08-08T18:52:18.464Z,698.47
2022-08-08T18:55:00.639Z,692.80
2022-08-08T18:57:36.950Z,702.80
2022-08-08T19:00:13.874Z,696.33
2022-08-08T19:02:48.299Z,698.27
2022-08-08T19:05:22.709Z,700.90
2022-08-08T19:07:52.315Z,690.80
2022-08-08T19:10:19.166Z,692.57
2022-08-08T19:12:53.192Z,703.03
2022-08-08T19:15:23.554Z,696.23
2022-08-08T19:18:33.415Z,697.30
2022-08-08T19:20:43.063Z,706.20
2022-08-08T19:23:13.252Z,704.00
2022-08-08T19:26:01.463Z,711.20
2022-08-08T19:28:26.159Z,711.10
2022-08-08T19:31:04.021Z,710.23
2022-08-08T19:33:52.011Z,706.50
2022-08-08T19:36:27.534Z,713.90
2022-08-08T19:38:54.539Z,698.17
2022-08-08T19:41:21.499Z,705.97
2022-08-08T19:43:56.771Z,709.90
2022-08-08T19:46:33.617Z,702.97
2022-08-08T19:49:00.418Z,713.40
2022-08-08T19:51:34.606Z,716.67
2022-08-08T19:54:05.948Z,718.07
2022-08-08T19:56:40.742Z,707.53
2022-08-08T19:59:08.154Z,719.47
2022-08-08T20:02:01.335Z,716.97
2022-08-08T20:04:21.183Z,709.00
2022-08-08T20:06:50.707Z,720.90
2022-08-08T20:09:17.409Z,715.10
2022-08-08T20:11:49.542Z,711.40
2022-08-08T20:14:34.116Z,716.50
2022-08-08T20:17:01.842Z,720.57
2022-08-08T20:19:33.458Z,708.70
2022-08-08T20:22:03.072Z,713.20
2022-08-08T20:24:31.485Z,709.37
2022-08-08T20:26:57.955Z,725.00
2022-08-08T20:29:25.656Z,721.87
2022-08-08T20:32:14.189Z,708.60
2022-08-08T20:34:47.431Z,718.20
2022-08-08T20:37:14.554Z,708.90
2022-08-08T20:39:51.129Z,720.37
2022-08-08T20:42:18.202Z,722.00
2022-08-08T20:44:46.923Z,724.20
2022-08-08T20:47:23.596Z,721.43
2022-08-08T20:49:50.435Z,725.13
2022-08-08T20:52:20.489Z,723.80
2022-08-08T20:54:47.623Z,728.63
2022-08-08T20:57:17.425Z,721.50
2022-08-08T20:59:45.722Z,730.17
2022-08-08T21:02:19.630Z,730.63
2022-08-08T21:04:47.846Z,733.73
2022-08-08T21:07:16.763Z,733.60
2022-08-08T21:10:07.799Z,731.03
2022-08-08T21:12:39.444Z,732.40
2022-08-08T21:15:10.845Z,720.40
2022-08-08T21:17:42.788Z,733.97
2022-08-08T21:20:11.623Z,736.30
2022-08-08T21:22:38.563Z,731.07
2022-08-08T21:25:05.774Z,736.03
2022-08-08T21:28:06.274Z,733.27
2022-08-08T21:30:24.475Z,731.30
2022-08-08T21:32:52.506Z,739.63
2022-08-08T21:36:17.033Z,741.60
2022-08-08T21:38:11.797Z,735.03
2022-08-08T21:40:54.958Z,729.37
2022-08-08T21:43:23.370Z,730.17
2022-08-08T21:48:08.147Z,620.30
2022-08-08T21:48:44.684Z,680.03
2022-08-08T21:51:20.447Z,724.17
2022-08-08T21:54:32.788Z,737.73
2022-08-08T21:56:50.873Z,736.63
2022-08-08T21:59:18.114Z,734.33
2022-08-08T22:01:52.374Z,735.83
2022-08-08T22:04:22.113Z,743.70
2022-08-08T22:06:51.296Z,733.70
2022-08-08T22:09:18.236Z,739.60
2022-08-08T22:12:02.274Z,739.27
2022-08-08T22:14:31.165Z,742.30
2022-08-08T22:17:00.839Z,741.20
2022-08-08T22:19:29.022Z,743.23
2022-08-08T22:21:56.224Z,743.57
2022-08-08T22:24:28.393Z,743.30
2022-08-08T22:27:01.845Z,748.20
2022-08-08T22:29:59.706Z,747.17
2022-08-08T22:32:17.996Z,736.00
2022-08-08T22:34:45.143Z,738.10
2022-08-08T22:37:48.625Z,746.73
2022-08-08T22:40:04.609Z,747.23
2022-08-08T22:42:31.716Z,738.00
2022-08-08T22:45:00.871Z,747.10
2022-08-08T22:47:38.436Z,748.33
2022-08-08T22:50:09.912Z,747.33
2022-08-08T22:54:15.753Z,748.90
2022-08-08T22:55:58.722Z,740.73
2022-08-08T22:58:27.172Z,732.60
2022-08-08T23:00:55.377Z,738.33
2022-08-08T23:03:21.920Z,741.93
2022-08-08T23:05:49.581Z,743.00
2022-08-08T23:08:18.081Z,745.30
2022-08-08T23:10:52.589Z,732.60
2022-08-08T23:13:20.305Z,747.43
2022-08-08T23:16:40.983Z,744.27
2022-08-08T23:18:34.936Z,733.90
2022-08-08T23:21:01.368Z,746.80
2022-08-08T23:23:30.429Z,739.57
2022-08-08T23:25:57.941Z,741.20
2022-08-08T23:28:24.374Z,745.60
2022-08-08T23:30:50.921Z,746.03
2022-08-08T23:33:21.063Z,741.00
2022-08-08T23:36:08.425Z,734.37
2022-08-08T23:38:35.517Z,736.70
2022-08-08T23:41:02.038Z,739.10
2022-08-08T23:43:45.611Z,733.73
2022-08-08T23:49:01.122Z,736.60
2022-08-08T23:49:17.999Z,730.20
2022-08-08T23:52:04.812Z,740.70
2022-08-08T23:54:43.601Z,731.17
2022-08-08T23:57:26.805Z,731.50
